Time;durP1;ratioP1;P1;durP2;ratioP2;P2;SDS_P1;SDS_P2;PMS_P1;PMS_P2;Temp;Humidity;BMP_temperature;BMP_pressure;BME280_temperature;BME280_humidity;BME280_pressure;Samples;Min_cycle;Max_cycle;Signal;HPM_P1;HPM_P2
2022/08/19 00:00:29;;;;;;;3.28;2.08;;;;;;;25.09;45.51;99112.38;5089670;28;20120;-85
2022/08/19 00:02:54;;;;;;;3.15;1.98;;;;;;;25.38;46.10;99150.41;5109503;28;20779;-85
2022/08/19 00:05:21;;;;;;;1.90;1.35;;;;;;;25.72;44.30;99179.06;5096587;28;20032;-85
2022/08/19 00:07:48;;;;;;;1.50;1.13;;;;;;;25.70;45.02;99171.09;5075614;28;20035;-86
2022/08/19 00:10:15;;;;;;;2.53;1.58;;;;;;;25.73;44.83;99168.13;5069729;28;20024;-85
2022/08/19 00:12:41;;;;;;;2.67;2.05;;;;;;;25.76;45.03;99179.66;5069624;28;20032;-85
2022/08/19 00:15:13;;;;;;;1.30;0.90;;;;;;;25.71;45.11;99161.97;5089429;28;20040;-85
2022/08/19 00:17:40;;;;;;;2.42;2.22;;;;;;;25.75;45.07;99168.00;5090628;28;20034;-85
2022/08/19 00:20:06;;;;;;;3.17;2.72;;;;;;;25.88;44.29;99174.03;5089015;28;20523;-85
2022/08/19 00:22:33;;;;;;;2.97;2.42;;;;;;;25.55;44.72;99157.06;5106573;28;20031;-85
2022/08/19 00:24:58;;;;;;;2.05;1.17;;;;;;;25.58;45.18;99165.88;5099941;28;20549;-85
2022/08/19 00:27:24;;;;;;;3.17;2.88;;;;;;;25.51;44.95;99135.84;5090761;28;20031;-86
2022/08/19 00:29:50;;;;;;;2.10;1.90;;;;;;;25.50;44.75;99145.81;5110043;28;20035;-86
2022/08/19 00:32:16;;;;;;;2.30;1.83;;;;;;;25.58;45.58;99155.06;5109496;28;20507;-86
2022/08/19 00:34:41;;;;;;;1.70;1.33;;;;;;;25.63;44.74;99169.06;5109618;28;20070;-86
2022/08/19 00:37:07;;;;;;;1.55;1.38;;;;;;;25.54;44.94;99168.00;5083004;28;20101;-86
2022/08/19 00:39:32;;;;;;;2.05;1.48;;;;;;;25.40;45.66;99171.03;5099153;28;20130;-86
2022/08/19 00:41:58;;;;;;;1.27;1.10;;;;;;;25.13;47.23;99143.50;5109752;28;20050;-86
2022/08/19 00:44:28;;;;;;;2.22;1.42;;;;;;;25.22;48.07;99166.16;5108175;28;20545;-85
2022/08/19 00:46:55;;;;;;;3.50;2.20;;;;;;;24.80;49.23;99152.56;5109079;28;20566;-85
2022/08/19 00:49:35;;;;;;;4.22;2.90;;;;;;;24.35;49.99;99115.75;5109684;28;20024;-84
2022/08/19 00:52:08;;;;;;;2.58;1.92;;;;;;;24.37;50.06;99111.09;5109345;28;20027;-85
2022/08/19 00:54:36;;;;;;;4.60;2.25;;;;;;;24.63;49.64;99154.81;5105097;28;20039;-86
2022/08/19 00:57:05;;;;;;;2.63;1.45;;;;;;;24.56;49.92;99140.09;5089031;28;20066;-83
2022/08/19 00:59:35;;;;;;;2.60;1.40;;;;;;;24.39;49.41;99106.44;5070800;28;20028;-84
2022/08/19 01:02:01;;;;;;;3.35;2.08;;;;;;;24.29;49.73;99143.19;5089164;28;20031;-85
2022/08/19 01:04:26;;;;;;;2.22;2.05;;;;;;;24.00;49.90;99107.81;5091134;28;20922;-84
2022/08/19 01:06:52;;;;;;;5.90;3.58;;;;;;;24.21;50.43;99149.22;5108819;28;20036;-84
2022/08/19 01:09:17;;;;;;;4.03;3.50;;;;;;;24.24;50.45;99146.25;5100470;28;20096;-86
2022/08/19 01:11:44;;;;;;;1.88;1.63;;;;;;;24.41;49.99;99147.59;5068010;28;20044;-86
2022/08/19 01:14:11;;;;;;;2.42;1.65;;;;;;;24.34;49.79;99149.06;5069017;28;20047;-84
2022/08/19 01:16:39;;;;;;;4.13;3.40;;;;;;;24.27;50.17;99146.03;5088939;28;20503;-86
2022/08/19 01:19:16;;;;;;;1.63;1.33;;;;;;;24.04;50.67;99107.47;5089002;28;20042;-86
2022/08/19 01:21:48;;;;;;;1.80;1.65;;;;;;;24.31;50.30;99139.41;5106981;28;20035;-85
2022/08/19 01:24:13;;;;;;;1.90;1.67;;;;;;;23.93;49.20;99107.47;5107227;28;20081;-85
2022/08/19 01:26:44;;;;;;;4.05;2.45;;;;;;;24.03;48.96;99143.44;5088300;28;20557;-86
2022/08/19 01:29:11;;;;;;;10.30;3.95;;;;;;;24.00;47.74;99118.59;5088217;28;20421;-84
2022/08/19 01:31:39;;;;;;;1.83;1.27;;;;;;;23.98;47.08;99134.88;5106253;28;20082;-84
2022/08/19 01:34:05;;;;;;;2.60;2.22;;;;;;;24.01;45.96;99123.88;5108722;28;20082;-84
2022/08/19 01:36:41;;;;;;;1.73;1.38;;;;;;;24.40;45.09;99140.47;5097589;28;20031;-85
2022/08/19 01:39:10;;;;;;;0.73;0.70;;;;;;;24.80;44.42;99131.84;5099114;28;20405;-84
2022/08/19 01:41:36;;;;;;;2.53;2.30;;;;;;;25.17;43.94;99165.69;5069855;28;20043;-84
2022/08/19 01:44:03;;;;;;;0.95;0.90;;;;;;;25.10;43.95;99137.50;5087716;28;20059;-85
2022/08/19 01:46:30;;;;;;;2.17;1.95;;;;;;;25.20;44.12;99160.88;5107553;28;20056;-85
2022/08/19 01:48:56;;;;;;;3.03;2.47;;;;;;;25.19;44.34;99185.28;5101790;28;20050;-85
2022/08/19 01:51:21;;;;;;;4.07;1.92;;;;;;;24.94;44.58;99124.44;5087564;28;20036;-86
2022/08/19 01:53:49;;;;;;;2.20;1.48;;;;;;;25.11;45.21;99164.34;5069833;28;20548;-85
2022/08/19 01:56:15;;;;;;;1.63;1.42;;;;;;;24.92;45.32;99151.56;5088557;28;20031;-85
2022/08/19 01:58:47;;;;;;;4.10;2.28;;;;;;;25.01;45.25;99155.34;5091557;28;20512;-86
2022/08/19 02:01:13;;;;;;;2.15;1.60;;;;;;;25.09;45.53;99192.47;5109350;28;20024;-85
2022/08/19 02:03:39;;;;;;;1.95;1.75;;;;;;;25.00;46.11;99167.09;5109073;28;20066;-85
2022/08/19 02:06:05;;;;;;;1.75;1.63;;;;;;;24.96;46.78;99171.03;5091539;28;20062;-85
2022/08/19 02:08:34;;;;;;;2.13;1.85;;;;;;;25.02;46.68;99178.63;5091381;28;20058;-85
2022/08/19 02:11:00;;;;;;;2.47;2.00;;;;;;;24.82;47.46;99169.47;5100109;28;20040;-85
2022/08/19 02:13:26;;;;;;;1.83;1.38;;;;;;;24.85;46.90;99174.63;5107735;28;20497;-86
2022/08/19 02:15:52;;;;;;;2.05;1.83;;;;;;;24.60;46.97;99159.59;5108295;28;20550;-86
2022/08/19 02:18:18;;;;;;;2.50;1.88;;;;;;;24.68;47.61;99194.88;5107880;28;20028;-85
2022/08/19 02:20:44;;;;;;;1.17;0.98;;;;;;;24.57;48.32;99187.66;5099320;28;20076;-86
2022/08/19 02:23:11;;;;;;;1.73;1.15;;;;;;;24.47;48.44;99175.91;5108215;28;20142;-86
2022/08/19 02:25:38;;;;;;;1.60;1.50;;;;;;;24.29;48.41;99171.00;5094859;28;20031;-84
2022/08/19 02:28:04;;;;;;;10.38;1.55;;;;;;;24.43;48.88;99190.59;5087817;28;20093;-85
2022/08/19 02:30:30;;;;;;;1.35;1.23;;;;;;;24.62;48.90;99206.16;5087913;28;20035;-85
2022/08/19 02:32:56;;;;;;;2.00;1.77;;;;;;;24.61;49.01;99207.16;5087259;28;20035;-85
2022/08/19 02:35:21;;;;;;;3.08;1.80;;;;;;;24.61;49.31;99216.09;5088486;28;20044;-85
2022/08/19 02:40:34;;;;;;;1.25;1.02;;;;;;;24.56;49.91;99217.41;5100209;28;20118;-85
2022/08/19 02:43:03;;;;;;;1.48;1.13;;;;;;;24.27;49.39;99181.06;5107471;28;20513;-85
2022/08/19 02:45:37;;;;;;;1.77;1.35;;;;;;;24.49;48.83;99206.28;5095639;28;20048;-85
2022/08/19 02:48:03;;;;;;;2.22;1.60;;;;;;;24.33;47.24;99197.69;5081023;28;20047;-86
2022/08/19 02:50:28;;;;;;;1.70;1.60;;;;;;;24.23;46.41;99159.88;5084410;28;20035;-85
2022/08/19 02:52:54;;;;;;;1.90;1.50;;;;;;;24.34;46.81;99192.19;5089085;28;20032;-87
2022/08/19 02:55:20;;;;;;;1.83;1.35;;;;;;;24.61;46.45;99218.81;5096434;28;20055;-86
2022/08/19 02:57:46;;;;;;;3.38;1.67;;;;;;;24.60;46.27;99222.47;5107352;28;20523;-86
2022/08/19 03:00:12;;;;;;;0.73;0.73;;;;;;;24.64;45.70;99218.56;5106411;28;20032;-86
2022/08/19 03:02:38;;;;;;;2.83;2.55;;;;;;;24.49;45.86;99200.88;5087020;28;20058;-84
2022/08/19 03:05:06;;;;;;;2.70;1.42;;;;;;;24.71;45.15;99218.06;5086958;28;20051;-84
2022/08/19 03:07:32;;;;;;;1.55;1.40;;;;;;;24.53;45.16;99209.56;5088002;28;20402;-83
2022/08/19 03:09:58;;;;;;;2.30;1.92;;;;;;;24.57;45.67;99240.72;5087663;28;20036;-84
2022/08/19 03:12:23;;;;;;;3.33;2.22;;;;;;;24.62;45.72;99252.88;5095423;28;20417;-84
2022/08/19 03:14:49;;;;;;;1.50;1.40;;;;;;;24.56;45.48;99217.41;5092146;28;20044;-84
2022/08/19 03:17:14;;;;;;;1.13;1.00;;;;;;;24.36;45.59;99200.16;5086505;28;20032;-83
2022/08/19 03:19:40;;;;;;;1.20;1.10;;;;;;;24.48;46.00;99224.31;5080366;28;20032;-84
2022/08/19 03:22:05;;;;;;;7.35;2.30;;;;;;;24.38;45.61;99206.28;5080709;28;20043;-84
2022/08/19 03:24:31;;;;;;;1.23;1.13;;;;;;;24.49;45.46;99227.84;5086176;28;20032;-85
2022/08/19 03:26:58;;;;;;;1.08;0.90;;;;;;;24.49;46.24;99233.22;5077047;28;20048;-84
2022/08/19 03:29:26;;;;;;;4.28;1.35;;;;;;;24.69;46.45;99257.78;5079709;28;20036;-84
2022/08/19 03:31:51;;;;;;;3.13;1.70;;;;;;;24.59;46.23;99246.84;5084241;28;20111;-84
2022/08/19 03:34:26;;;;;;;0.77;0.77;;;;;;;24.47;46.72;99225.28;5087454;28;20081;-88
2022/08/19 03:36:53;;;;;;;2.40;2.20;;;;;;;24.79;46.89;99270.41;5108286;28;20038;-85
2022/08/19 03:39:18;;;;;;;3.17;1.90;;;;;;;24.47;47.31;99233.34;5106804;28;20028;-86
2022/08/19 03:41:47;;;;;;;3.60;2.15;;;;;;;24.47;47.58;99238.75;5092102;28;20047;-85
2022/08/19 03:44:20;;;;;;;1.38;1.27;;;;;;;24.70;47.46;99264.88;5077603;28;20490;-86
2022/08/19 03:46:52;;;;;;;1.17;1.02;;;;;;;24.41;47.36;99235.69;5086934;28;20075;-87
2022/08/19 03:49:19;;;;;;;1.52;1.42;;;;;;;24.59;46.68;99230.69;5086666;28;20115;-86
2022/08/19 03:51:45;;;;;;;1.25;1.15;;;;;;;24.79;46.51;99270.41;5086489;28;20517;-83
2022/08/19 03:54:14;;;;;;;1.77;1.35;;;;;;;24.47;46.29;99230.66;5067770;28;20433;-85
2022/08/19 03:56:42;;;;;;;1.67;1.45;;;;;;;24.61;45.62;99255.69;5066258;28;20028;-84
2022/08/19 03:59:16;;;;;;;3.38;2.38;;;;;;;24.34;45.44;99238.00;5048646;28;20128;-83
2022/08/19 04:01:42;;;;;;;4.95;3.50;;;;;;;24.63;45.49;99259.97;5068178;28;20025;-84
2022/08/19 04:04:09;;;;;;;1.80;1.42;;;;;;;24.56;45.10;99237.16;5079353;28;20090;-82
2022/08/19 04:06:38;;;;;;;1.35;1.25;;;;;;;24.77;44.50;99268.78;5102317;28;20055;-89
2022/08/19 04:09:06;;;;;;;2.38;1.80;;;;;;;24.77;44.06;99247.22;5096724;28;20069;-87
2022/08/19 04:11:35;;;;;;;1.60;1.45;;;;;;;24.90;44.54;99236.28;5088942;28;20028;-84
2022/08/19 04:14:01;;;;;;;1.65;1.45;;;;;;;24.92;43.61;99226.25;5091104;28;20557;-85
2022/08/19 04:16:30;;;;;;;1.65;1.15;;;;;;;24.98;43.31;99240.06;5110213;28;20169;-84
2022/08/19 04:18:56;;;;;;;3.22;1.75;;;;;;;25.10;43.68;99261.63;5109816;28;20027;-85
2022/08/19 04:21:25;;;;;;;1.33;0.98;;;;;;;24.90;43.69;99237.16;5095368;28;20028;-83
2022/08/19 04:23:52;;;;;;;2.03;1.30;;;;;;;25.13;43.19;99246.06;5082560;28;20040;-84
2022/08/19 04:26:22;;;;;;;1.70;1.52;;;;;;;25.26;43.44;99259.38;5089405;28;20028;-83
2022/08/19 04:28:48;;;;;;;0.95;0.90;;;;;;;25.40;43.01;99254.72;5096439;28;20027;-84
2022/08/19 04:31:25;;;;;;;1.95;1.60;;;;;;;25.20;42.75;99222.09;5102570;28;20093;-84
2022/08/19 04:33:56;;;;;;;1.00;0.75;;;;;;;25.28;43.27;99252.00;5089460;28;20478;-85
2022/08/19 04:36:25;;;;;;;1.38;1.10;;;;;;;25.25;43.43;99264.91;5089629;28;20035;-91
2022/08/19 04:38:55;;;;;;;2.28;2.08;;;;;;;25.42;42.79;99250.88;5089845;28;20032;-89
2022/08/19 04:44:05;;;;;;;1.58;1.23;;;;;;;25.36;42.91;99219.00;5079674;28;20062;-86
2022/08/19 04:46:31;;;;;;;2.35;1.65;;;;;;;25.95;42.79;99257.25;5089038;28;20048;-86
2022/08/19 04:48:58;;;;;;;1.60;1.25;;;;;;;26.17;42.56;99259.00;5089286;28;20058;-83
2022/08/19 04:51:24;;;;;;;2.15;1.77;;;;;;;26.34;42.49;99277.28;5089864;28;20036;-82
2022/08/19 04:53:51;;;;;;;0.57;0.55;;;;;;;26.26;41.96;99242.81;5092702;28;20036;-82
2022/08/19 04:56:19;;;;;;;3.13;1.48;;;;;;;26.47;41.93;99276.22;5088899;28;20632;-86
2022/08/19 04:58:45;;;;;;;1.98;1.42;;;;;;;26.53;41.33;99281.09;5088522;28;20420;-85
2022/08/19 05:01:18;;;;;;;1.35;0.85;;;;;;;26.54;40.40;99243.09;5081076;28;20029;-85
2022/08/19 05:03:43;;;;;;;1.13;1.02;;;;;;;26.79;40.48;99260.72;5092415;28;20071;-85
2022/08/19 05:06:12;;;;;;;1.23;1.10;;;;;;;26.83;40.09;99238.78;5100245;28;20074;-85
2022/08/19 05:08:42;;;;;;;2.22;1.42;;;;;;;26.94;40.00;99228.72;5100495;28;20036;-90
2022/08/19 05:11:21;;;;;;;3.80;2.63;;;;;;;27.01;40.29;99239.00;5080273;28;20035;-87
2022/08/19 05:13:48;;;;;;;1.58;1.30;;;;;;;27.45;40.26;99263.84;5065252;28;20450;-85
2022/08/19 05:16:15;;;;;;;0.82;0.77;;;;;;;27.71;40.61;99279.53;5087904;28;20128;-87
2022/08/19 05:24:12;;;;;;;1.55;1.45;;;;;;;28.10;39.95;99282.22;5089327;28;21143;-86
2022/08/19 05:26:40;;;;;;;1.05;0.95;;;;;;;28.34;40.27;99287.19;5088555;28;20516;-86
2022/08/19 05:29:07;;;;;;;3.03;1.88;;;;;;;28.10;40.16;99225.31;5073805;28;20413;-88
2022/08/19 05:31:33;;;;;;;8.95;1.77;;;;;;;28.33;39.69;99256.50;5106477;28;20035;-86
2022/08/19 05:33:59;;;;;;;3.53;1.45;;;;;;;28.24;40.72;99265.53;5085775;28;20025;-88
2022/08/19 05:36:28;;;;;;;4.78;3.15;;;;;;;28.00;40.61;99234.31;5102996;28;20715;-86
2022/08/19 05:38:54;;;;;;;4.63;3.45;;;;;;;28.13;40.60;99258.41;5064250;28;20480;-90
2022/08/19 05:41:23;;;;;;;4.07;3.35;;;;;;;27.76;41.62;99247.44;5082852;28;20032;-86
2022/08/19 05:43:49;;;;;;;3.72;2.63;;;;;;;27.82;40.31;99242.31;5083529;28;20040;-85
2022/08/19 05:46:19;;;;;;;2.08;1.88;;;;;;;28.49;40.14;99265.88;5077701;28;20053;-88
2022/08/19 05:48:45;;;;;;;1.40;1.30;;;;;;;29.10;39.50;99275.31;5068133;28;20033;-87
2022/08/19 05:51:11;;;;;;;4.63;3.47;;;;;;;29.11;39.13;99248.00;5070225;28;20032;-87
2022/08/19 05:53:37;;;;;;;1.48;1.08;;;;;;;28.79;39.08;99225.91;5067241;28;20517;-87
2022/08/19 05:56:09;;;;;;;6.38;2.42;;;;;;;28.99;40.93;99278.25;5069743;28;20047;-89
2022/08/19 05:58:36;;;;;;;2.30;1.80;;;;;;;28.91;39.66;99235.56;5068656;28;20111;-87
2022/08/19 06:01:05;;;;;;;3.33;2.33;;;;;;;28.81;39.90;99251.03;5068132;28;20043;-87
2022/08/19 06:03:33;;;;;;;2.17;1.70;;;;;;;28.86;40.56;99235.19;5068422;28;20032;-88
2022/08/19 06:05:59;;;;;;;2.03;1.80;;;;;;;29.26;39.24;99247.53;5069032;28;20036;-87
2022/08/19 06:08:26;;;;;;;7.80;2.15;;;;;;;29.15;38.09;99254.00;5068606;28;20032;-88
2022/08/19 06:10:53;;;;;;;3.33;2.10;;;;;;;29.33;40.28;99273.03;5070044;28;20166;-86
2022/08/19 06:13:19;;;;;;;1.90;1.52;;;;;;;29.94;38.29;99293.16;5068180;28;20024;-87
2022/08/19 06:15:46;;;;;;;3.58;2.38;;;;;;;29.24;38.54;99282.09;5067078;28;20043;-87
2022/08/19 06:18:13;;;;;;;3.70;2.75;;;;;;;29.18;38.94;99241.94;5066214;28;20032;-88
2022/08/19 06:20:39;;;;;;;1.92;1.27;;;;;;;29.78;38.70;99273.97;5067226;28;20468;-88
2022/08/19 06:23:05;;;;;;;4.13;3.20;;;;;;;29.84;38.73;99245.34;5067192;28;20040;-88
2022/08/19 06:25:31;;;;;;;3.58;2.92;;;;;;;29.95;39.23;99231.50;5067364;28;20032;-87
2022/08/19 06:27:57;;;;;;;2.60;1.90;;;;;;;30.55;37.35;99260.63;5067555;28;20033;-86
2022/08/19 06:30:22;;;;;;;3.05;1.85;;;;;;;31.21;37.34;99286.25;5049897;28;20111;-86
2022/08/19 06:32:48;;;;;;;4.53;2.35;;;;;;;31.27;36.62;99253.94;5068634;28;20444;-89
2022/08/19 06:35:14;;;;;;;8.77;3.53;;;;;;;31.33;36.51;99265.00;5068716;28;20058;-87
2022/08/19 06:37:40;;;;;;;2.17;1.92;;;;;;;31.23;37.00;99272.47;5069183;28;20081;-90
2022/08/19 06:40:08;;;;;;;2.30;1.83;;;;;;;31.47;35.84;99255.31;5068110;28;20029;-89
2022/08/19 06:42:34;;;;;;;1.60;1.45;;;;;;;31.59;34.88;99288.59;5082197;28;20032;-88
2022/08/19 06:45:02;;;;;;;3.05;1.70;;;;;;;31.48;34.91;99270.66;5070259;28;20082;-89
2022/08/19 06:47:28;;;;;;;3.53;2.85;;;;;;;31.58;35.33;99259.63;5086146;28;20051;-87
2022/08/19 06:50:02;;;;;;;2.45;1.23;;;;;;;31.48;34.01;99239.81;5070364;28;20393;-90
2022/08/19 06:52:29;;;;;;;2.37;1.47;;;;;;;31.68;33.55;99256.72;5088330;28;20032;-87
2022/08/19 06:54:56;;;;;;;2.85;2.55;;;;;;;31.69;33.63;99259.28;5088593;28;20032;-86
2022/08/19 06:57:23;;;;;;;5.03;3.15;;;;;;;32.11;33.81;99295.59;5088597;28;20040;-89
2022/08/19 06:59:48;;;;;;;1.95;1.65;;;;;;;32.02;34.67;99275.63;5089008;28;20043;-87
2022/08/19 07:02:14;;;;;;;5.90;2.58;;;;;;;32.48;33.21;99272.34;5087445;28;20032;-88
2022/08/19 07:04:39;;;;;;;3.60;1.42;;;;;;;32.65;33.89;99260.38;5087320;28;20050;-89
2022/08/19 07:07:11;;;;;;;6.65;1.33;;;;;;;32.73;32.96;99272.28;5087177;28;20081;-88
2022/08/19 07:09:40;;;;;;;7.05;1.75;;;;;;;32.89;32.81;99285.88;5069956;28;20055;-87
2022/08/19 07:12:08;;;;;;;2.63;2.17;;;;;;;33.00;32.33;99282.75;5087294;28;20444;-87
2022/08/19 07:14:38;;;;;;;3.70;1.88;;;;;;;32.47;31.54;99243.34;5087954;28;20024;-88
2022/08/19 07:17:06;;;;;;;2.60;1.83;;;;;;;32.54;31.72;99243.50;5087895;28;20036;-89
2022/08/19 07:19:35;;;;;;;2.28;1.73;;;;;;;32.86;31.64;99228.03;5086887;28;20028;-89
2022/08/19 07:22:03;;;;;;;4.75;2.63;;;;;;;32.53;32.12;99253.56;5087323;28;20118;-91
2022/08/19 07:24:29;;;;;;;15.18;8.95;;;;;;;32.74;31.32;99244.81;5087316;28;20032;-88
2022/08/19 07:27:00;;;;;;;5.80;3.65;;;;;;;32.78;31.80;99242.56;5086897;28;20061;-86
2022/08/19 07:29:29;;;;;;;2.95;2.00;;;;;;;33.07;31.03;99243.78;5087365;28;20402;-88
2022/08/19 07:31:56;;;;;;;3.53;2.65;;;;;;;33.57;30.97;99244.34;5086662;28;20043;-88
2022/08/19 07:34:23;;;;;;;8.90;4.22;;;;;;;33.07;31.23;99233.72;5086935;28;20090;-88
2022/08/19 07:36:49;;;;;;;2.28;1.42;;;;;;;33.57;30.55;99236.13;5089043;28;20031;-88
2022/08/19 07:39:21;;;;;;;1.85;1.65;;;;;;;34.13;31.02;99255.00;5090462;28;20032;-88
2022/08/19 07:41:50;;;;;;;2.53;1.35;;;;;;;34.21;29.68;99233.88;5090789;28;20508;-88
2022/08/19 07:44:16;;;;;;;5.30;1.90;;;;;;;33.81;29.01;99235.13;5090941;28;20059;-89
2022/08/19 07:46:45;;;;;;;2.25;1.67;;;;;;;33.68;30.51;99265.81;5090531;28;20513;-88
2022/08/19 07:49:17;;;;;;;2.83;2.15;;;;;;;33.97;31.47;99289.69;5090343;28;20088;-89
2022/08/19 07:51:44;;;;;;;1.60;1.42;;;;;;;34.40;29.83;99257.16;5089515;28;20031;-88
2022/08/19 07:54:11;;;;;;;2.58;2.20;;;;;;;34.27;30.08;99254.19;5090730;28;20039;-87
2022/08/19 07:56:37;;;;;;;1.60;1.50;;;;;;;34.57;29.66;99238.63;5089131;28;20069;-89
2022/08/19 07:59:03;;;;;;;10.80;2.75;;;;;;;34.66;30.15;99253.06;5072081;28;20027;-88
2022/08/19 08:01:29;;;;;;;3.80;2.10;;;;;;;34.90;29.98;99231.94;5090592;28;20032;-87
2022/08/19 08:09:33;;;;;;;1.40;1.30;;;;;;;35.06;29.48;99223.47;5090655;28;20038;-89
2022/08/19 08:12:03;;;;;;;4.15;2.35;;;;;;;34.84;29.10;99269.16;5090260;28;20035;-88
2022/08/19 08:14:34;;;;;;;3.85;1.70;;;;;;;35.01;30.04;99288.97;5089650;28;20422;-88
2022/08/19 08:17:01;;;;;;;2.75;1.67;;;;;;;34.63;30.34;99226.06;5072441;28;20119;-88
2022/08/19 08:19:28;;;;;;;2.28;1.25;;;;;;;34.54;29.10;99260.06;5071843;28;20031;-88
2022/08/19 08:21:58;;;;;;;2.47;1.80;;;;;;;34.60;30.52;99230.06;5088445;28;20035;-88
2022/08/19 08:24:26;;;;;;;2.10;1.25;;;;;;;34.87;29.68;99244.09;5090118;28;20032;-88
2022/08/19 08:26:51;;;;;;;2.20;1.67;;;;;;;35.02;28.59;99210.34;5089739;28;20031;-88
2022/08/19 08:29:19;;;;;;;2.45;1.30;;;;;;;35.17;28.22;99233.06;5089746;28;20078;-88
2022/08/19 08:31:46;;;;;;;3.47;2.08;;;;;;;35.70;29.52;99249.25;5089308;28;20035;-86
2022/08/19 08:34:13;;;;;;;1.65;1.13;;;;;;;36.13;26.66;99254.72;5089611;28;20048;-87
2022/08/19 08:36:41;;;;;;;1.75;1.25;;;;;;;36.04;27.42;99244.94;5089181;28;20525;-87
2022/08/19 08:39:09;;;;;;;1.35;1.15;;;;;;;35.77;28.32;99241.09;5089242;28;20027;-86
2022/08/19 08:42:05;;;;;;;1.70;1.40;;;;;;;36.27;26.21;99249.31;5089461;28;20032;-86
2022/08/19 08:44:55;;;;;;;6.35;2.25;;;;;;;35.72;27.42;99260.88;5071385;28;20529;-87
2022/08/19 08:47:23;;;;;;;2.10;1.77;;;;;;;35.75;28.10;99235.78;5066518;28;20046;-86
2022/08/19 08:49:54;;;;;;;5.65;2.47;;;;;;;36.29;27.23;99252.75;5089282;28;20395;-86
2022/08/19 08:52:30;;;;;;;1.52;0.70;;;;;;;36.50;26.34;99221.59;5089339;28;20040;-88
2022/08/19 08:54:58;;;;;;;3.10;1.20;;;;;;;37.26;25.58;99229.78;5089729;28;20028;-88
2022/08/19 08:57:33;;;;;;;1.10;1.00;;;;;;;36.87;25.10;99195.59;5089427;28;20036;-87
2022/08/19 09:00:04;;;;;;;2.35;1.48;;;;;;;37.37;24.74;99192.56;5089077;28;20032;-87
2022/08/19 09:02:29;;;;;;;4.57;1.20;;;;;;;36.63;25.35;99221.66;5086152;28;20405;-89
2022/08/19 09:04:55;;;;;;;2.10;1.90;;;;;;;36.25;27.05;99224.78;5081418;28;20031;-87
2022/08/19 09:07:30;;;;;;;7.22;1.65;;;;;;;36.96;26.16;99236.63;5078146;28;20029;-87
2022/08/19 09:10:22;;;;;;;2.20;1.35;;;;;;;37.12;24.11;99230.72;5088271;28;20036;-87
2022/08/19 09:12:59;;;;;;;1.40;1.00;;;;;;;37.35;23.83;99193.81;5085156;28;20836;-86
2022/08/19 09:15:34;;;;;;;2.85;1.90;;;;;;;37.72;24.72;99217.13;5086101;28;20094;-86
2022/08/19 09:18:03;;;;;;;1.05;0.82;;;;;;;37.84;23.32;99220.09;5081440;28;20129;-87
2022/08/19 09:20:28;;;;;;;2.20;1.38;;;;;;;38.21;22.49;99216.94;5074798;28;20047;-87
2022/08/19 09:22:54;;;;;;;1.88;1.38;;;;;;;37.58;23.90;99180.50;5069227;28;20033;-87
2022/08/19 09:25:22;;;;;;;1.05;0.80;;;;;;;37.14;25.00;99219.53;5079322;28;20043;-88
2022/08/19 09:27:49;;;;;;;1.90;1.52;;;;;;;37.22;24.58;99197.38;5089361;28;20047;-88
2022/08/19 09:30:20;;;;;;;1.95;1.35;;;;;;;37.66;23.63;99214.38;5089220;28;20121;-87
2022/08/19 09:32:47;;;;;;;1.38;0.95;;;;;;;37.50;23.81;99204.63;5070550;28;20094;-87
2022/08/19 09:35:14;;;;;;;2.17;1.60;;;;;;;37.25;24.18;99186.81;5068024;28;20046;-86
2022/08/19 09:37:40;;;;;;;6.00;2.15;;;;;;;37.39;24.04;99187.69;5076566;28;20400;-87
2022/08/19 09:40:06;;;;;;;2.53;2.13;;;;;;;36.57;25.06;99206.00;5085610;28;20036;-89
2022/08/19 09:42:33;;;;;;;1.50;0.98;;;;;;;36.85;25.57;99181.19;5059805;28;20038;-87
2022/08/19 09:44:59;;;;;;;2.90;1.35;;;;;;;37.26;23.08;99179.41;5085556;28;20039;-85
2022/08/19 09:47:24;;;;;;;2.40;1.65;;;;;;;37.57;23.57;99165.06;5087048;28;20048;-87
2022/08/19 09:49:50;;;;;;;3.17;1.52;;;;;;;37.40;24.48;99174.78;5088069;28;20523;-87
2022/08/19 09:52:15;;;;;;;2.20;1.60;;;;;;;37.09;25.42;99173.44;5087951;28;20042;-87
2022/08/19 09:54:42;;;;;;;2.15;1.95;;;;;;;36.70;26.67;99186.84;5085847;28;20059;-87
2022/08/19 09:57:08;;;;;;;1.98;1.52;;;;;;;37.40;23.42;99167.38;5088140;28;20028;-88
2022/08/19 09:59:33;;;;;;;1.35;1.20;;;;;;;37.86;23.51;99197.88;5087576;28;20123;-88
2022/08/19 10:01:59;;;;;;;2.05;1.50;;;;;;;37.63;23.40;99177.09;5087550;28;20032;-87
2022/08/19 10:05:47;;;;;;;1.30;1.13;;;;;;;37.92;22.93;99184.09;5087015;28;20051;-88
2022/08/19 10:07:11;;;;;;;3.08;2.38;;;;;;;36.89;24.96;99151.41;5083919;28;20110;-87
2022/08/19 10:09:36;;;;;;;1.13;0.85;;;;;;;37.04;24.99;99143.81;5086726;28;20028;-85
2022/08/19 10:12:04;;;;;;;2.00;1.33;;;;;;;37.55;23.63;99152.56;5086926;28;20047;-86
2022/08/19 10:14:30;;;;;;;1.58;1.48;;;;;;;37.54;23.84;99175.63;5086822;28;20521;-88
2022/08/19 10:16:56;;;;;;;1.45;1.23;;;;;;;37.03;23.79;99142.16;5086900;28;20024;-86
2022/08/19 10:19:22;;;;;;;2.33;1.63;;;;;;;36.57;27.02;99129.09;5087529;28;20027;-86
2022/08/19 10:21:47;;;;;;;2.13;1.38;;;;;;;37.10;24.55;99150.41;5084833;28;20040;-86
2022/08/19 10:24:13;;;;;;;2.05;1.58;;;;;;;37.44;25.08;99163.16;5087424;28;20063;-86
2022/08/19 10:26:44;;;;;;;1.73;1.55;;;;;;;37.69;23.90;99162.50;5087877;28;20150;-87
2022/08/19 10:29:11;;;;;;;1.00;0.95;;;;;;;37.23;25.05;99119.34;5087528;28;20034;-86
2022/08/19 10:31:37;;;;;;;2.33;1.85;;;;;;;36.72;24.11;99113.31;5087007;28;20035;-86
2022/08/19 10:34:02;;;;;;;2.03;1.48;;;;;;;36.64;24.19;99159.31;5068569;28;20032;-85
2022/08/19 10:36:32;;;;;;;2.05;1.70;;;;;;;36.74;24.27;99121.38;5087106;28;20413;-87
2022/08/19 10:39:01;;;;;;;2.90;1.40;;;;;;;37.05;23.88;99130.94;5068970;28;20032;-88
2022/08/19 10:41:29;;;;;;;1.55;0.90;;;;;;;37.00;23.41;99133.44;5069133;28;20524;-84
2022/08/19 10:43:57;;;;;;;1.73;1.27;;;;;;;37.12;23.56;99119.94;5087162;28;20024;-86
2022/08/19 10:46:25;;;;;;;3.85;1.90;;;;;;;37.01;23.88;99111.25;5082016;28;20055;-87
2022/08/19 10:48:51;;;;;;;1.55;1.05;;;;;;;37.01;23.93;99102.19;5067104;28;20117;-84
2022/08/19 10:54:01;;;;;;;2.25;1.52;;;;;;;36.83;24.64;99128.38;5067280;28;20545;-85
2022/08/19 10:59:14;;;;;;;1.65;1.25;;;;;;;37.00;23.80;99112.34;5066932;28;20040;-84
2022/08/19 11:01:42;;;;;;;12.15;1.38;;;;;;;37.18;23.18;99108.13;5066657;28;20032;-86
2022/08/19 11:04:09;;;;;;;1.95;1.05;;;;;;;37.04;26.70;99119.09;5081733;28;20712;-87
2022/08/19 11:06:38;;;;;;;1.45;1.08;;;;;;;37.18;23.91;99103.44;5066561;28;20501;-86
2022/08/19 11:09:05;;;;;;;1.48;1.05;;;;;;;37.20;23.22;99100.50;5066416;28;20041;-83
2022/08/19 11:11:31;;;;;;;0.77;0.70;;;;;;;36.90;24.95;99087.16;5070353;28;20418;-85
2022/08/19 11:13:57;;;;;;;2.15;1.40;;;;;;;37.34;23.48;99084.88;5070681;28;20460;-85
2022/08/19 11:16:29;;;;;;;1.98;1.77;;;;;;;37.42;23.36;99106.69;5071016;28;20153;-84
2022/08/19 11:18:58;;;;;;;2.00;1.60;;;;;;;37.13;22.42;99105.16;5070773;28;20033;-84
2022/08/19 11:21:33;;;;;;;2.35;1.67;;;;;;;36.57;23.37;99071.44;5070573;28;20123;-87
2022/08/19 11:24:01;;;;;;;1.75;1.35;;;;;;;36.84;23.23;99082.50;5069254;28;20460;-86
2022/08/19 11:26:29;;;;;;;1.52;1.42;;;;;;;37.05;22.51;99103.47;5070262;28;20580;-87
2022/08/19 11:28:55;;;;;;;1.27;1.08;;;;;;;37.08;22.75;99105.78;5070305;28;20043;-87
2022/08/19 11:31:23;;;;;;;1.20;0.95;;;;;;;37.35;23.28;99112.16;5085995;28;20046;-86
2022/08/19 11:33:53;;;;;;;1.45;0.95;;;;;;;37.00;21.22;99090.34;5070212;28;20090;-84
2022/08/19 11:36:20;;;;;;;1.23;0.80;;;;;;;37.07;23.38;99074.69;5070148;28;20032;-86
2022/08/19 11:38:48;;;;;;;6.78;2.00;;;;;;;37.32;22.70;99104.34;5070489;28;20059;-84
2022/08/19 11:41:15;;;;;;;1.67;1.25;;;;;;;37.05;21.98;99095.22;5069877;28;20098;-83
2022/08/19 11:43:41;;;;;;;2.45;1.52;;;;;;;36.69;22.93;99094.47;5070190;28;20039;-84
2022/08/19 11:46:10;;;;;;;0.93;0.77;;;;;;;36.81;22.39;99093.91;5078495;28;20048;-85
2022/08/19 11:48:36;;;;;;;1.65;1.10;;;;;;;36.97;22.09;99096.25;5090111;28;20046;-84
2022/08/19 11:51:09;;;;;;;1.65;1.48;;;;;;;37.18;22.16;99089.72;5090630;28;20028;-86
2022/08/19 11:53:35;;;;;;;1.15;0.85;;;;;;;37.59;21.69;99079.59;5090099;28;20032;-87
2022/08/19 11:56:02;;;;;;;1.95;1.40;;;;;;;37.30;21.92;99067.97;5090329;28;20122;-86
2022/08/19 11:58:29;;;;;;;2.53;1.25;;;;;;;37.51;21.93;99063.28;5090177;28;20089;-86